Portada
METAR-TAF:

METAR-TAF

Aeropuertos :

Lárnaca, Chipre

Aeropuerto Internacional de Lárnaca

latitud: 34-53N, longitud: 033-38E, altitud: 2 m

Observación

El informe se hizo hace 29 minutos, a las 18:00 UTC
Viento 2 kt con dirección variable
Temperatura 24°C
Humedad 74%
Presión 1011 hPa
Visibilidad 10 km o más
sin nubes por debajo de 1500 m y sin presencia de cumulonimbus.

METAR: LCLK 221800Z VRB02KT CAVOK 24/19 Q1011 NOSIG

Hora: 21:29 (18:29 UTC)

Pronóstico

El informe se hizo hace 59 minutos, a las 17:30 UTC
Pronóstico válido del 22 a las 18 UTC al 23 a las 18 UTC
Viento 6 kt del oeste-noroeste
Visibilidad 10 km o más
Escasas nubes a una altura de 4000 ft
Evolucionando progresivamente
del 23 a las 08 UTC al 23 a las 11 UTC
Viento 14 kt del sur-suroeste
Evolucionando progresivamente
del 23 a las 16 UTC al 23 a las 18 UTC
Viento 6 kt del oeste

TAF: LCLK 221730Z 2218/2318 30006KT 9999 FEW040 BECMG 2308/2311 20014KT BECMG 2316/2318 27006KT

Observaciones y pronósticos meteorológicos de más de 4000 aeropuertos (mensajes METAR y TAF).

Los puntos amarillos y rojos representan las estaciones disponibles.

Ponga el ratón en el punto deseado para ver el nombre de la estación.

Haga clic para ver las observaciones y los pronósticos meteorológicos.

Para cambiar el mapa : haga clic en los botones verdes con una cruz de color negro para hacer un zoom, en el botón verde con un guión para alejar o en las flechas verdes para mapas adyacentes.


METAR-TAF: